Time;durP1;ratioP1;P1;durP2;ratioP2;P2;SDS_P1;SDS_P2;PMS_P1;PMS_P2;Temp;Humidity;BMP_temperature;BMP_pressure;BME280_temperature;BME280_humidity;BME280_pressure;Samples;Min_cycle;Max_cycle;Signal;HPM_P1;HPM_P2
2023/01/08 00:01:56;;;;;;;109.60;20.83;;;;;;;;;;4932168;29;20249;-62
2023/01/08 00:04:22;;;;;;;94.77;20.37;;;;;;;;;;4932776;29;20546;-63
2023/01/08 00:06:51;;;;;;;79.67;18.90;;;;;;;;;;4931982;29;20506;-64
2023/01/08 00:09:17;;;;;;;95.30;20.27;;;;;;;;;;4928393;29;20450;-63
2023/01/08 00:11:44;;;;;;;69.23;19.87;;;;;;;;;;4932158;29;20490;-63
2023/01/08 00:14:29;;;;;;;114.30;22.43;;;;;;;;;;4932670;29;20494;-63
2023/01/08 00:16:55;;;;;;;119.00;21.03;;;;;;;;;;4931076;29;20443;-63
2023/01/08 00:19:41;;;;;;;93.83;20.00;;;;;;;;;;4932246;29;20811;-62
2023/01/08 00:22:07;;;;;;;81.33;19.90;;;;;;;;;;4932967;29;20442;-62
2023/01/08 00:24:34;;;;;;;88.47;19.83;;;;;;;;;;4932619;29;20503;-62
2023/01/08 00:27:00;;;;;;;149.03;21.27;;;;;;;;;;4915207;29;20749;-63
2023/01/08 00:29:27;;;;;;;139.80;22.23;;;;;;;;;;4931804;29;20525;-60
2023/01/08 00:31:54;;;;;;;115.67;20.83;;;;;;;;;;4932624;29;20426;-60
2023/01/08 00:34:21;;;;;;;139.50;22.57;;;;;;;;;;4913247;29;20534;-60
2023/01/08 00:36:48;;;;;;;125.27;22.00;;;;;;;;;;4913922;29;20199;-60
2023/01/08 00:39:14;;;;;;;112.20;21.67;;;;;;;;;;4927101;29;20198;-60
2023/01/08 00:41:44;;;;;;;122.10;21.43;;;;;;;;;;4932282;29;20522;-60
2023/01/08 00:44:10;;;;;;;99.67;21.77;;;;;;;;;;4932772;29;20576;-60
2023/01/08 00:46:37;;;;;;;172.60;26.83;;;;;;;;;;4931836;29;20435;-62
2023/01/08 00:49:06;;;;;;;124.17;23.27;;;;;;;;;;4931564;29;20221;-61
2023/01/08 00:51:32;;;;;;;84.90;24.10;;;;;;;;;;4931929;29;20250;-61
2023/01/08 00:54:17;;;;;;;136.57;23.10;;;;;;;;;;4930743;29;20422;-60
2023/01/08 00:56:45;;;;;;;95.43;21.80;;;;;;;;;;4931877;29;20199;-61
2023/01/08 00:59:29;;;;;;;96.03;22.20;;;;;;;;;;4932156;29;20521;-60
2023/01/08 01:01:55;;;;;;;99.47;22.77;;;;;;;;;;4931969;29;20427;-61
2023/01/08 01:04:24;;;;;;;115.87;23.60;;;;;;;;;;4935119;29;20446;-61
2023/01/08 01:06:51;;;;;;;119.37;22.50;;;;;;;;;;4926650;29;20651;-60
2023/01/08 01:09:18;;;;;;;159.87;23.50;;;;;;;;;;4928650;29;20454;-61
2023/01/08 01:11:44;;;;;;;137.80;24.57;;;;;;;;;;4935377;29;20222;-61
2023/01/08 01:14:11;;;;;;;104.60;23.00;;;;;;;;;;4918001;29;20451;-61
2023/01/08 01:16:40;;;;;;;149.37;24.77;;;;;;;;;;4918756;29;20954;-61
2023/01/08 01:19:24;;;;;;;186.10;24.50;;;;;;;;;;4934248;29;20423;-61
2023/01/08 01:21:51;;;;;;;131.63;22.87;;;;;;;;;;4936116;29;20411;-61
2023/01/08 01:24:35;;;;;;;143.13;25.20;;;;;;;;;;4936076;29;20426;-60
2023/01/08 01:27:02;;;;;;;83.17;22.87;;;;;;;;;;4935112;29;20526;-62
2023/01/08 01:29:29;;;;;;;138.17;24.13;;;;;;;;;;4935257;29;20452;-60
2023/01/08 01:31:56;;;;;;;137.27;25.07;;;;;;;;;;4936584;29;20442;-61
2023/01/08 01:34:23;;;;;;;132.70;23.83;;;;;;;;;;4935640;29;20847;-61
2023/01/08 01:36:50;;;;;;;193.73;24.50;;;;;;;;;;4935949;29;20472;-60
2023/01/08 01:39:18;;;;;;;207.87;27.87;;;;;;;;;;4935845;29;20213;-60
2023/01/08 01:41:45;;;;;;;172.80;27.43;;;;;;;;;;4934907;29;20956;-61
2023/01/08 02:19:32;;;;;;;231.20;29.57;;;;;;;;;;4916231;29;20426;-61
2023/01/08 02:22:09;;;;;;;177.73;30.13;;;;;;;;;;4901007;29;20484;-61
2023/01/08 02:24:55;;;;;;;201.10;29.33;;;;;;;;;;4914927;29;20487;-61
2023/01/08 02:27:23;;;;;;;168.27;31.43;;;;;;;;;;4915726;29;20954;-61
2023/01/08 02:29:50;;;;;;;213.00;30.30;;;;;;;;;;4917074;29;20454;-61
2023/01/08 02:32:17;;;;;;;126.90;27.77;;;;;;;;;;4933411;29;20465;-61
2023/01/08 02:34:43;;;;;;;198.40;34.27;;;;;;;;;;4933013;29;20553;-62
2023/01/08 02:37:10;;;;;;;218.80;32.83;;;;;;;;;;4927245;29;20976;-61
2023/01/08 02:39:39;;;;;;;148.83;29.90;;;;;;;;;;4934439;29;20848;-61
2023/01/08 02:42:06;;;;;;;191.97;32.13;;;;;;;;;;4934100;29;20658;-61
2023/01/08 02:44:56;;;;;;;170.40;31.07;;;;;;;;;;4934128;29;20434;-61
2023/01/08 02:47:37;;;;;;;106.43;26.97;;;;;;;;;;4904054;29;20215;-62
2023/01/08 02:50:14;;;;;;;144.93;29.97;;;;;;;;;;4923880;29;20443;-61
2023/01/08 02:53:00;;;;;;;121.97;29.50;;;;;;;;;;4918784;29;20926;-63
2023/01/08 02:55:27;;;;;;;170.10;32.00;;;;;;;;;;4915919;29;20890;-61
2023/01/08 02:57:54;;;;;;;207.67;32.33;;;;;;;;;;4934492;29;20447;-61
2023/01/08 03:00:20;;;;;;;168.73;32.03;;;;;;;;;;4934162;29;20474;-61
2023/01/08 03:02:47;;;;;;;207.13;34.50;;;;;;;;;;4916935;29;20659;-61
2023/01/08 03:05:20;;;;;;;227.67;32.50;;;;;;;;;;4917212;29;20443;-61
2023/01/08 03:07:47;;;;;;;171.37;31.90;;;;;;;;;;4916769;29;20218;-61
2023/01/08 03:10:13;;;;;;;178.63;32.33;;;;;;;;;;4900749;29;21309;-61
2023/01/08 03:12:49;;;;;;;125.73;31.20;;;;;;;;;;4925140;29;20204;-61
2023/01/08 03:15:18;;;;;;;187.60;33.13;;;;;;;;;;4931328;29;20273;-61
2023/01/08 03:17:45;;;;;;;182.00;32.33;;;;;;;;;;4916078;29;20195;-61
2023/01/08 03:20:14;;;;;;;177.27;32.30;;;;;;;;;;4916783;29;20497;-61
2023/01/08 03:22:40;;;;;;;121.93;30.43;;;;;;;;;;4908166;29;20187;-61
2023/01/08 03:25:07;;;;;;;152.37;29.07;;;;;;;;;;4929001;29;20542;-61
2023/01/08 03:27:36;;;;;;;106.10;29.40;;;;;;;;;;4925433;29;20471;-61
2023/01/08 03:30:04;;;;;;;155.53;31.80;;;;;;;;;;4922550;29;20202;-61
2023/01/08 03:32:30;;;;;;;109.03;31.90;;;;;;;;;;4931372;29;20482;-61
2023/01/08 03:34:57;;;;;;;202.90;33.17;;;;;;;;;;4932250;29;20201;-61
2023/01/08 03:37:25;;;;;;;124.60;30.53;;;;;;;;;;4932839;29;20187;-61
2023/01/08 03:39:53;;;;;;;120.47;30.67;;;;;;;;;;4931983;29;20277;-62
2023/01/08 03:42:20;;;;;;;186.33;32.73;;;;;;;;;;4930337;29;20193;-62
2023/01/08 03:44:46;;;;;;;114.03;30.27;;;;;;;;;;4916590;29;20439;-61
2023/01/08 03:47:13;;;;;;;130.10;32.03;;;;;;;;;;4916023;29;20190;-62
2023/01/08 03:49:40;;;;;;;133.73;31.27;;;;;;;;;;4920723;29;20494;-61
2023/01/08 03:52:06;;;;;;;122.37;30.83;;;;;;;;;;4931733;29;20242;-61
2023/01/08 03:54:50;;;;;;;91.83;27.23;;;;;;;;;;4921588;29;20466;-61
2023/01/08 03:57:17;;;;;;;140.63;32.43;;;;;;;;;;4932541;29;20190;-61
2023/01/08 03:59:43;;;;;;;109.33;31.13;;;;;;;;;;4933238;29;20197;-61
2023/01/08 04:02:10;;;;;;;106.47;30.93;;;;;;;;;;4932832;29;20815;-61
2023/01/08 04:04:37;;;;;;;105.27;32.00;;;;;;;;;;4932963;29;20254;-61
2023/01/08 04:07:04;;;;;;;110.00;32.70;;;;;;;;;;4933097;29;20515;-61
2023/01/08 04:09:30;;;;;;;103.17;30.80;;;;;;;;;;4931682;29;20324;-61
2023/01/08 04:11:57;;;;;;;100.30;30.27;;;;;;;;;;4931810;29;20199;-61
2023/01/08 04:14:24;;;;;;;102.17;30.17;;;;;;;;;;4932495;29;20195;-61
2023/01/08 04:16:51;;;;;;;93.53;32.17;;;;;;;;;;4932763;29;20714;-61
2023/01/08 04:19:18;;;;;;;94.80;29.30;;;;;;;;;;4932388;29;20449;-61
2023/01/08 04:21:45;;;;;;;92.03;29.27;;;;;;;;;;4915927;29;20244;-61
2023/01/08 04:24:12;;;;;;;98.87;30.60;;;;;;;;;;4932743;29;20199;-61
2023/01/08 04:26:38;;;;;;;88.33;29.70;;;;;;;;;;4932507;29;20474;-61
2023/01/08 04:29:05;;;;;;;90.27;29.00;;;;;;;;;;4931857;29;20340;-61
2023/01/08 04:31:32;;;;;;;89.47;29.80;;;;;;;;;;4932908;29;20827;-61
2023/01/08 04:33:58;;;;;;;87.90;29.43;;;;;;;;;;4913823;29;20196;-62
2023/01/08 04:36:25;;;;;;;83.80;30.57;;;;;;;;;;4913354;29;20202;-61
2023/01/08 04:38:52;;;;;;;90.17;30.07;;;;;;;;;;4913380;29;20199;-61
2023/01/08 04:41:18;;;;;;;86.70;29.20;;;;;;;;;;4913325;29;20247;-61
2023/01/08 04:44:02;;;;;;;88.10;28.87;;;;;;;;;;4928554;29;20225;-61
2023/01/08 04:46:29;;;;;;;89.07;30.50;;;;;;;;;;4932228;29;20187;-61
2023/01/08 04:48:56;;;;;;;95.80;31.97;;;;;;;;;;4931878;29;20277;-62
2023/01/08 04:51:24;;;;;;;93.87;30.07;;;;;;;;;;4931256;29;20194;-61
2023/01/08 04:53:51;;;;;;;100.30;31.53;;;;;;;;;;4932137;29;20193;-60
2023/01/08 04:56:35;;;;;;;89.30;30.47;;;;;;;;;;4915339;29;20178;-61
2023/01/08 04:59:02;;;;;;;99.57;31.63;;;;;;;;;;4931839;29;20718;-61
2023/01/08 05:01:28;;;;;;;94.40;29.80;;;;;;;;;;4932451;29;20187;-61
2023/01/08 05:03:58;;;;;;;87.17;29.40;;;;;;;;;;4932090;29;20222;-61
2023/01/08 05:06:25;;;;;;;89.60;31.43;;;;;;;;;;4931738;29;20205;-61
2023/01/08 05:09:10;;;;;;;79.97;29.90;;;;;;;;;;4931852;29;20238;-62
2023/01/08 05:11:37;;;;;;;86.33;31.27;;;;;;;;;;4931187;29;20674;-60
2023/01/08 05:14:04;;;;;;;86.67;29.53;;;;;;;;;;4910571;29;20207;-61
2023/01/08 05:16:31;;;;;;;82.57;29.57;;;;;;;;;;4913372;29;21067;-61
2023/01/08 05:18:57;;;;;;;78.97;26.93;;;;;;;;;;4925234;29;20533;-62
2023/01/08 05:21:42;;;;;;;79.33;28.23;;;;;;;;;;4925385;29;20186;-61
2023/01/08 05:24:08;;;;;;;86.07;30.40;;;;;;;;;;4931495;29;20438;-61
2023/01/08 05:26:53;;;;;;;84.67;28.87;;;;;;;;;;4931488;29;20629;-60
2023/01/08 05:29:19;;;;;;;88.30;29.40;;;;;;;;;;4929660;29;23157;-60
2023/01/08 05:31:46;;;;;;;93.67;32.67;;;;;;;;;;4931322;29;20195;-60
2023/01/08 05:34:13;;;;;;;92.40;29.43;;;;;;;;;;4931631;29;20215;-60
2023/01/08 05:36:39;;;;;;;88.50;30.40;;;;;;;;;;4931840;29;20202;-61
2023/01/08 05:39:24;;;;;;;86.70;29.67;;;;;;;;;;4931310;29;20178;-62
2023/01/08 05:41:50;;;;;;;93.73;31.33;;;;;;;;;;4931597;29;20191;-60
2023/01/08 05:44:34;;;;;;;95.40;32.33;;;;;;;;;;4931318;29;20178;-61
2023/01/08 05:47:01;;;;;;;87.83;30.77;;;;;;;;;;4931456;29;20610;-62
2023/01/08 05:49:28;;;;;;;96.87;30.07;;;;;;;;;;4931891;29;20250;-61
2023/01/08 05:51:55;;;;;;;87.23;29.13;;;;;;;;;;4934064;29;20195;-61
2023/01/08 05:54:21;;;;;;;97.07;30.63;;;;;;;;;;4934906;29;20655;-61
2023/01/08 05:56:48;;;;;;;96.17;31.67;;;;;;;;;;4934449;29;20246;-59
2023/01/08 05:59:15;;;;;;;101.73;33.70;;;;;;;;;;4934913;29;20218;-61
2023/01/08 06:01:41;;;;;;;105.70;33.50;;;;;;;;;;4934883;29;20227;-63
2023/01/08 06:04:08;;;;;;;97.33;32.33;;;;;;;;;;4934903;29;20544;-60
2023/01/08 06:06:35;;;;;;;103.13;32.50;;;;;;;;;;4918444;29;20199;-59
2023/01/08 06:09:01;;;;;;;109.33;35.40;;;;;;;;;;4934524;29;20214;-60
2023/01/08 06:11:28;;;;;;;107.40;34.13;;;;;;;;;;4934648;29;20447;-62
2023/01/08 06:13:55;;;;;;;104.03;33.83;;;;;;;;;;4934547;29;20195;-61
2023/01/08 06:16:21;;;;;;;106.57;37.17;;;;;;;;;;4934749;29;20194;-60
2023/01/08 06:19:05;;;;;;;100.50;34.37;;;;;;;;;;4934808;29;20191;-59
2023/01/08 06:21:32;;;;;;;91.20;33.03;;;;;;;;;;4934813;29;20195;-59
2023/01/08 06:24:16;;;;;;;103.23;35.83;;;;;;;;;;4933723;29;20434;-59
2023/01/08 06:26:42;;;;;;;111.20;37.63;;;;;;;;;;4934241;29;20785;-62
2023/01/08 06:29:09;;;;;;;110.03;37.77;;;;;;;;;;4933812;29;20218;-60
2023/01/08 06:31:36;;;;;;;109.23;37.60;;;;;;;;;;4933595;29;20202;-60
2023/01/08 06:34:02;;;;;;;102.23;35.60;;;;;;;;;;4933968;29;20591;-61
2023/01/08 06:36:29;;;;;;;99.77;37.30;;;;;;;;;;4934457;29;20191;-60
2023/01/08 06:38:56;;;;;;;98.50;37.70;;;;;;;;;;4934217;29;20242;-61
2023/01/08 06:41:22;;;;;;;100.70;38.97;;;;;;;;;;4934100;29;20258;-63
2023/01/08 06:43:49;;;;;;;98.00;38.43;;;;;;;;;;4934167;29;20187;-60
2023/01/08 06:46:16;;;;;;;105.30;38.33;;;;;;;;;;4933923;29;20240;-60
2023/01/08 06:48:42;;;;;;;94.83;36.97;;;;;;;;;;4934103;29;21145;-60
2023/01/08 06:51:10;;;;;;;87.00;35.23;;;;;;;;;;4934266;29;20195;-60
2023/01/08 06:53:37;;;;;;;86.40;33.70;;;;;;;;;;4932293;29;20225;-60
2023/01/08 06:56:06;;;;;;;91.90;36.73;;;;;;;;;;4933429;29;20202;-60
2023/01/08 06:58:33;;;;;;;94.40;37.90;;;;;;;;;;4933641;29;20806;-60
2023/01/08 07:00:59;;;;;;;92.60;36.93;;;;;;;;;;4933839;29;20238;-60
2023/01/08 07:03:26;;;;;;;91.83;37.17;;;;;;;;;;4933613;29;20704;-59
2023/01/08 07:06:20;;;;;;;99.17;37.20;;;;;;;;;;4924900;29;20186;-60
2023/01/08 07:08:47;;;;;;;95.80;35.03;;;;;;;;;;4916669;29;20222;-59
2023/01/08 07:11:13;;;;;;;91.57;35.20;;;;;;;;;;4917043;29;20195;-60
2023/01/08 07:13:40;;;;;;;98.80;39.27;;;;;;;;;;4934100;29;20494;-61
2023/01/08 07:16:07;;;;;;;96.23;40.70;;;;;;;;;;4934316;29;20246;-61
2023/01/08 07:18:34;;;;;;;94.30;37.70;;;;;;;;;;4933734;29;20191;-61
2023/01/08 07:21:02;;;;;;;90.93;38.13;;;;;;;;;;4933306;29;20438;-61
2023/01/08 07:23:28;;;;;;;98.33;38.67;;;;;;;;;;4932831;29;20616;-61
2023/01/08 07:25:58;;;;;;;103.17;43.80;;;;;;;;;;4932858;29;20230;-61
2023/01/08 07:28:25;;;;;;;112.73;46.50;;;;;;;;;;4932768;29;20554;-60
2023/01/08 07:30:51;;;;;;;96.47;40.03;;;;;;;;;;4933017;29;20242;-60
2023/01/08 07:33:18;;;;;;;105.13;43.33;;;;;;;;;;4932068;29;20198;-60
2023/01/08 07:35:54;;;;;;;106.27;46.73;;;;;;;;;;4932685;29;20654;-61
2023/01/08 07:38:21;;;;;;;101.63;41.93;;;;;;;;;;4933327;29;20194;-61
2023/01/08 07:40:47;;;;;;;95.63;39.67;;;;;;;;;;4932826;29;20187;-60
2023/01/08 07:43:14;;;;;;;90.70;39.57;;;;;;;;;;4932701;29;20233;-61
2023/01/08 07:45:40;;;;;;;90.80;36.93;;;;;;;;;;4933410;29;20186;-62
2023/01/08 07:48:09;;;;;;;96.10;39.90;;;;;;;;;;4932508;29;20254;-61
2023/01/08 07:50:36;;;;;;;95.07;41.33;;;;;;;;;;4919884;29;20737;-62
2023/01/08 07:53:20;;;;;;;87.70;39.17;;;;;;;;;;4932997;29;20179;-62
2023/01/08 07:55:47;;;;;;;83.93;37.90;;;;;;;;;;4932096;29;20242;-62
2023/01/08 07:58:13;;;;;;;100.70;39.57;;;;;;;;;;4932708;29;20265;-60
2023/01/08 08:00:40;;;;;;;87.57;38.77;;;;;;;;;;4915579;29;20183;-60
2023/01/08 08:03:08;;;;;;;87.97;38.07;;;;;;;;;;4931944;29;20198;-61
2023/01/08 08:05:34;;;;;;;82.73;38.30;;;;;;;;;;4915595;29;20199;-62
2023/01/08 08:08:01;;;;;;;86.10;38.40;;;;;;;;;;4916571;29;20982;-62
2023/01/08 08:10:28;;;;;;;68.30;30.70;;;;;;;;;;4912426;29;20542;-60
2023/01/08 08:12:54;;;;;;;87.10;38.27;;;;;;;;;;4926853;29;20439;-59
2023/01/08 08:15:21;;;;;;;98.63;38.53;;;;;;;;;;4931542;29;20446;-59
2023/01/08 08:17:48;;;;;;;91.77;40.27;;;;;;;;;;4925064;29;20537;-60
2023/01/08 08:20:15;;;;;;;91.10;40.10;;;;;;;;;;4932586;29;20226;-59
2023/01/08 08:22:42;;;;;;;88.83;40.13;;;;;;;;;;4931155;29;20202;-60
2023/01/08 08:25:08;;;;;;;85.40;38.37;;;;;;;;;;4932532;29;20218;-60
2023/01/08 08:27:35;;;;;;;88.20;40.20;;;;;;;;;;4930852;29;20187;-60
2023/01/08 08:30:02;;;;;;;83.10;39.93;;;;;;;;;;4932257;29;20281;-60
2023/01/08 08:32:29;;;;;;;84.37;39.37;;;;;;;;;;4931313;29;20447;-60
2023/01/08 08:35:14;;;;;;;80.70;37.57;;;;;;;;;;4932447;29;20202;-60
2023/01/08 08:37:40;;;;;;;85.27;38.90;;;;;;;;;;4932673;29;20254;-61
2023/01/08 08:40:25;;;;;;;68.60;32.63;;;;;;;;;;4930955;29;20163;-61
2023/01/08 08:42:58;;;;;;;92.03;41.17;;;;;;;;;;4932421;29;20197;-62
2023/01/08 08:45:25;;;;;;;82.90;38.20;;;;;;;;;;4932061;29;20245;-61
2023/01/08 08:47:51;;;;;;;89.67;39.77;;;;;;;;;;4931767;29;20190;-62
2023/01/08 08:50:18;;;;;;;86.17;39.90;;;;;;;;;;4931806;29;20482;-62
2023/01/08 08:52:45;;;;;;;82.00;38.43;;;;;;;;;;4931777;29;20190;-61
2023/01/08 08:55:14;;;;;;;82.10;39.30;;;;;;;;;;4932044;29;20666;-61
2023/01/08 08:57:41;;;;;;;79.87;35.43;;;;;;;;;;4931877;29;21012;-61
2023/01/08 09:00:08;;;;;;;80.00;35.77;;;;;;;;;;4931306;29;20546;-61
2023/01/08 09:02:35;;;;;;;82.43;40.63;;;;;;;;;;4931946;29;20486;-61
2023/01/08 09:05:02;;;;;;;78.97;36.90;;;;;;;;;;4931629;29;20199;-61
2023/01/08 09:07:29;;;;;;;89.33;39.90;;;;;;;;;;4931607;29;20202;-60
2023/01/08 09:09:56;;;;;;;79.83;37.17;;;;;;;;;;4931255;29;20577;-60
2023/01/08 09:12:22;;;;;;;81.20;35.23;;;;;;;;;;4931601;29;20667;-61
2023/01/08 09:15:06;;;;;;;85.80;38.73;;;;;;;;;;4931769;29;20936;-61
2023/01/08 09:17:35;;;;;;;82.80;38.40;;;;;;;;;;4931397;29;20240;-61
2023/01/08 09:20:19;;;;;;;80.40;38.50;;;;;;;;;;4928843;29;20442;-61
2023/01/08 09:22:46;;;;;;;86.83;38.00;;;;;;;;;;4931757;29;20593;-61
2023/01/08 09:25:13;;;;;;;81.70;37.83;;;;;;;;;;4929613;29;20221;-60
2023/01/08 09:27:40;;;;;;;80.93;35.93;;;;;;;;;;4912011;29;20187;-60
2023/01/08 09:30:07;;;;;;;81.87;37.10;;;;;;;;;;4935796;29;20478;-61
2023/01/08 09:32:34;;;;;;;78.60;35.60;;;;;;;;;;4935210;29;20454;-60
2023/01/08 09:35:01;;;;;;;85.03;38.13;;;;;;;;;;4935449;29;21025;-60
2023/01/08 09:37:27;;;;;;;74.13;35.60;;;;;;;;;;4925514;29;20446;-60
2023/01/08 09:39:54;;;;;;;73.20;35.87;;;;;;;;;;4929559;29;20520;-60
2023/01/08 09:42:28;;;;;;;81.17;34.47;;;;;;;;;;4936300;29;20446;-60
2023/01/08 09:44:55;;;;;;;87.80;39.40;;;;;;;;;;4933224;29;20446;-61
2023/01/08 09:47:33;;;;;;;77.57;36.30;;;;;;;;;;4923659;29;20805;-63
2023/01/08 09:50:01;;;;;;;78.17;35.13;;;;;;;;;;4931112;29;20793;-61
2023/01/08 09:52:28;;;;;;;90.80;39.30;;;;;;;;;;4919943;29;20598;-60
2023/01/08 09:54:55;;;;;;;84.87;38.17;;;;;;;;;;4922243;29;20197;-61
2023/01/08 09:57:39;;;;;;;75.30;32.43;;;;;;;;;;4934714;29;20249;-61
2023/01/08 10:00:29;;;;;;;76.90;35.27;;;;;;;;;;4935139;29;20214;-60
2023/01/08 10:02:56;;;;;;;81.03;34.97;;;;;;;;;;4929071;29;20454;-60
2023/01/08 10:05:24;;;;;;;80.13;34.93;;;;;;;;;;4934477;29;20175;-61
2023/01/08 10:07:51;;;;;;;75.73;34.23;;;;;;;;;;4909941;29;20196;-60
2023/01/08 10:10:19;;;;;;;83.40;36.07;;;;;;;;;;4934836;29;20509;-60
2023/01/08 10:12:46;;;;;;;90.07;38.97;;;;;;;;;;4918332;29;20802;-61
2023/01/08 10:15:14;;;;;;;83.97;36.83;;;;;;;;;;4935030;29;20445;-60
2023/01/08 10:17:41;;;;;;;82.60;35.23;;;;;;;;;;4934962;29;20470;-61
2023/01/08 10:20:11;;;;;;;80.80;36.23;;;;;;;;;;4934961;29;20807;-61
2023/01/08 10:22:38;;;;;;;83.80;36.40;;;;;;;;;;4934995;29;20469;-60
2023/01/08 10:25:09;;;;;;;80.17;35.07;;;;;;;;;;4917053;29;20199;-60
2023/01/08 10:27:56;;;;;;;78.53;33.53;;;;;;;;;;4933682;29;20473;-60
2023/01/08 10:30:40;;;;;;;89.87;38.13;;;;;;;;;;4933858;29;20210;-60
2023/01/08 10:33:10;;;;;;;92.27;36.20;;;;;;;;;;4934730;29;20195;-61
2023/01/08 10:35:38;;;;;;;82.57;35.87;;;;;;;;;;4934313;29;20199;-61
2023/01/08 10:38:04;;;;;;;81.77;36.17;;;;;;;;;;4933301;29;20281;-61
2023/01/08 10:40:43;;;;;;;79.97;33.07;;;;;;;;;;4934331;29;20450;-61
2023/01/08 10:43:16;;;;;;;77.97;34.97;;;;;;;;;;4917124;29;20981;-61
2023/01/08 10:45:43;;;;;;;75.20;32.43;;;;;;;;;;4934700;29;20446;-61
2023/01/08 10:48:16;;;;;;;66.33;27.13;;;;;;;;;;4933328;29;20265;-61
2023/01/08 10:50:43;;;;;;;83.60;33.97;;;;;;;;;;4933025;29;20482;-61
2023/01/08 10:53:23;;;;;;;78.53;31.90;;;;;;;;;;4933029;29;20426;-61
2023/01/08 10:56:02;;;;;;;88.77;35.40;;;;;;;;;;4932892;29;20202;-61
2023/01/08 10:58:46;;;;;;;80.97;31.90;;;;;;;;;;4934160;29;20647;-60
2023/01/08 11:01:22;;;;;;;77.37;33.07;;;;;;;;;;4913450;29;20451;-61
2023/01/08 11:03:50;;;;;;;83.23;35.03;;;;;;;;;;4914107;29;20195;-61
2023/01/08 11:06:19;;;;;;;86.73;34.43;;;;;;;;;;4914146;29;20195;-61
2023/01/08 11:08:49;;;;;;;79.67;32.07;;;;;;;;;;4913503;29;20604;-61
2023/01/08 11:11:17;;;;;;;81.43;33.93;;;;;;;;;;4913550;29;20545;-60
2023/01/08 11:13:59;;;;;;;75.63;31.50;;;;;;;;;;4914732;29;20195;-60
2023/01/08 11:16:43;;;;;;;82.80;30.97;;;;;;;;;;4913729;29;20420;-60
2023/01/08 11:19:14;;;;;;;83.07;33.30;;;;;;;;;;4914109;29;20447;-60
2023/01/08 11:21:42;;;;;;;83.73;33.77;;;;;;;;;;4914882;29;20443;-60
2023/01/08 11:24:17;;;;;;;86.10;32.83;;;;;;;;;;4915009;29;21029;-60
2023/01/08 11:27:08;;;;;;;79.93;33.00;;;;;;;;;;4913345;29;20470;-60
2023/01/08 11:29:54;;;;;;;87.43;37.47;;;;;;;;;;4913355;29;20223;-61
2023/01/08 11:32:28;;;;;;;79.97;31.90;;;;;;;;;;4914064;29;20455;-60
2023/01/08 11:34:54;;;;;;;81.17;31.50;;;;;;;;;;4914580;29;20278;-60
2023/01/08 11:37:28;;;;;;;78.87;30.83;;;;;;;;;;4914469;29;21117;-60
2023/01/08 11:39:55;;;;;;;86.00;34.60;;;;;;;;;;4913692;29;20312;-60
2023/01/08 11:42:40;;;;;;;66.23;24.23;;;;;;;;;;4914299;29;20199;-60
2023/01/08 11:45:10;;;;;;;82.63;32.67;;;;;;;;;;4914647;29;20873;-60
2023/01/08 11:47:43;;;;;;;76.77;30.83;;;;;;;;;;4913507;29;20769;-60
2023/01/08 11:50:10;;;;;;;80.57;34.23;;;;;;;;;;4928778;29;20486;-60
2023/01/08 11:52:40;;;;;;;87.83;34.03;;;;;;;;;;4933260;29;20441;-60
2023/01/08 11:55:19;;;;;;;82.97;32.30;;;;;;;;;;4931913;29;20447;-60
2023/01/08 11:58:22;;;;;;;72.47;27.87;;;;;;;;;;4933494;29;20179;-60
2023/01/08 12:00:55;;;;;;;73.70;29.00;;;;;;;;;;4933453;29;20186;-60
2023/01/08 12:03:33;;;;;;;77.67;29.57;;;;;;;;;;4931943;29;20442;-60
2023/01/08 12:06:10;;;;;;;83.87;34.17;;;;;;;;;;4927369;29;20223;-60
2023/01/08 12:08:57;;;;;;;86.77;32.43;;;;;;;;;;4913862;29;20430;-61
2023/01/08 12:11:30;;;;;;;75.33;32.20;;;;;;;;;;4913663;29;20483;-61
2023/01/08 12:13:57;;;;;;;77.97;31.23;;;;;;;;;;4913020;29;20241;-61
2023/01/08 12:16:42;;;;;;;81.10;32.53;;;;;;;;;;4912765;29;20799;-60
2023/01/08 12:19:14;;;;;;;80.23;32.17;;;;;;;;;;4914401;29;20266;-60
2023/01/08 12:21:40;;;;;;;81.70;31.90;;;;;;;;;;4912933;29;20187;-61
2023/01/08 12:24:25;;;;;;;80.90;32.17;;;;;;;;;;4913718;29;20199;-60
2023/01/08 12:27:05;;;;;;;69.87;30.37;;;;;;;;;;4913524;29;20479;-61
2023/01/08 12:29:44;;;;;;;76.83;32.40;;;;;;;;;;4913266;29;20459;-60
2023/01/08 12:32:11;;;;;;;82.83;33.37;;;;;;;;;;4912755;29;20439;-60
2023/01/08 12:34:41;;;;;;;83.03;33.50;;;;;;;;;;4913556;29;20462;-61
2023/01/08 12:37:13;;;;;;;81.60;33.20;;;;;;;;;;4912685;29;20259;-61
2023/01/08 12:39:48;;;;;;;77.77;32.07;;;;;;;;;;4913649;29;20195;-61
2023/01/08 12:42:16;;;;;;;80.70;32.93;;;;;;;;;;4912428;29;20233;-60
2023/01/08 12:44:42;;;;;;;84.30;35.53;;;;;;;;;;4913262;29;20199;-60
2023/01/08 12:47:13;;;;;;;87.70;36.67;;;;;;;;;;4913581;29;20212;-60
2023/01/08 12:49:42;;;;;;;71.00;27.33;;;;;;;;;;4912177;29;20251;-60
2023/01/08 12:52:15;;;;;;;73.03;31.07;;;;;;;;;;4912656;29;20443;-60
2023/01/08 12:54:47;;;;;;;80.30;33.43;;;;;;;;;;4930520;29;20194;-60
2023/01/08 12:57:39;;;;;;;58.27;24.27;;;;;;;;;;4932292;29;20273;-61
2023/01/08 13:00:16;;;;;;;83.17;35.27;;;;;;;;;;4918594;29;20558;-61
2023/01/08 13:02:46;;;;;;;85.33;35.33;;;;;;;;;;4936365;29;20228;-61
2023/01/08 13:05:13;;;;;;;80.60;31.50;;;;;;;;;;4936540;29;20439;-60
2023/01/08 13:07:45;;;;;;;73.37;28.37;;;;;;;;;;4934935;29;20663;-60
2023/01/08 13:10:37;;;;;;;82.93;33.77;;;;;;;;;;4919621;29;20486;-61
2023/01/08 13:13:07;;;;;;;87.73;34.00;;;;;;;;;;4927580;29;20446;-60
2023/01/08 13:15:51;;;;;;;73.47;31.30;;;;;;;;;;4936481;29;21032;-60
2023/01/08 13:18:18;;;;;;;79.90;33.57;;;;;;;;;;4934844;29;20470;-60
2023/01/08 13:21:03;;;;;;;81.67;34.47;;;;;;;;;;4936066;29;20250;-60
2023/01/08 13:23:31;;;;;;;80.57;32.10;;;;;;;;;;4934753;29;20222;-60
2023/01/08 13:26:15;;;;;;;81.27;32.93;;;;;;;;;;4931854;29;20689;-60
2023/01/08 13:28:43;;;;;;;89.80;34.83;;;;;;;;;;4934626;29;20302;-60
2023/01/08 13:31:19;;;;;;;87.23;35.90;;;;;;;;;;4936125;29;20477;-60
2023/01/08 13:33:47;;;;;;;81.43;34.43;;;;;;;;;;4934251;29;20189;-61
2023/01/08 13:36:15;;;;;;;86.67;36.13;;;;;;;;;;4900061;29;20294;-61
2023/01/08 13:38:42;;;;;;;78.13;35.10;;;;;;;;;;4916495;29;20187;-61
2023/01/08 13:41:25;;;;;;;84.03;36.00;;;;;;;;;;4916546;29;20498;-61
2023/01/08 13:44:03;;;;;;;78.70;34.67;;;;;;;;;;4916671;29;20458;-60
2023/01/08 13:46:30;;;;;;;83.50;32.37;;;;;;;;;;4915481;29;20222;-61
2023/01/08 13:49:22;;;;;;;83.47;32.00;;;;;;;;;;4916556;29;20458;-60
2023/01/08 13:51:49;;;;;;;84.90;35.70;;;;;;;;;;4916787;29;20729;-60
2023/01/08 13:54:18;;;;;;;83.43;35.53;;;;;;;;;;4931227;29;20431;-63
2023/01/08 13:56:45;;;;;;;80.87;34.10;;;;;;;;;;4918174;29;20218;-61
2023/01/08 13:59:20;;;;;;;86.80;35.10;;;;;;;;;;4914582;29;20258;-60
2023/01/08 14:01:53;;;;;;;82.93;35.63;;;;;;;;;;4916507;29;20195;-60
2023/01/08 14:04:21;;;;;;;89.43;36.30;;;;;;;;;;4916068;29;20439;-61
2023/01/08 14:06:48;;;;;;;86.40;33.53;;;;;;;;;;4916594;29;20204;-60
2023/01/08 14:09:21;;;;;;;85.70;36.80;;;;;;;;;;4899794;29;20687;-61
2023/01/08 14:12:08;;;;;;;87.50;37.47;;;;;;;;;;4915420;29;20467;-60
2023/01/08 14:14:34;;;;;;;76.60;34.23;;;;;;;;;;4914678;29;20435;-60
2023/01/08 14:17:02;;;;;;;89.37;38.93;;;;;;;;;;4914453;29;20566;-60
2023/01/08 14:19:28;;;;;;;89.50;37.63;;;;;;;;;;4914770;29;20533;-61
2023/01/08 14:21:58;;;;;;;87.50;37.37;;;;;;;;;;4916394;29;20432;-60
2023/01/08 14:24:25;;;;;;;81.00;36.97;;;;;;;;;;4914570;29;20191;-60
2023/01/08 14:26:55;;;;;;;77.67;34.73;;;;;;;;;;4915693;29;20223;-60
2023/01/08 14:29:23;;;;;;;83.23;35.97;;;;;;;;;;4915482;29;20201;-60
2023/01/08 14:32:19;;;;;;;81.03;33.33;;;;;;;;;;4915698;29;20683;-60
2023/01/08 14:34:46;;;;;;;81.20;37.80;;;;;;;;;;4915316;29;20214;-60
2023/01/08 14:37:13;;;;;;;83.40;33.63;;;;;;;;;;4934892;29;20659;-61
2023/01/08 14:39:40;;;;;;;76.93;35.10;;;;;;;;;;4933831;29;20918;-60
2023/01/08 14:44:57;;;;;;;81.40;37.10;;;;;;;;;;4933506;29;20201;-60
2023/01/08 14:47:24;;;;;;;93.43;39.93;;;;;;;;;;4934443;29;20295;-61
2023/01/08 14:49:52;;;;;;;74.70;33.67;;;;;;;;;;4934406;29;20223;-60
2023/01/08 14:52:20;;;;;;;64.40;29.73;;;;;;;;;;4934499;29;20222;-61
2023/01/08 14:54:48;;;;;;;85.93;37.20;;;;;;;;;;4932286;29;20541;-60
2023/01/08 14:57:15;;;;;;;73.03;34.33;;;;;;;;;;4933053;29;20573;-61
2023/01/08 14:59:43;;;;;;;82.77;37.73;;;;;;;;;;4932829;29;20498;-60
2023/01/08 15:02:17;;;;;;;69.83;32.97;;;;;;;;;;4917179;29;20505;-61
2023/01/08 15:04:44;;;;;;;66.30;29.77;;;;;;;;;;4932808;29;20206;-60
2023/01/08 15:07:18;;;;;;;77.87;35.00;;;;;;;;;;4933428;29;20191;-61
2023/01/08 15:09:53;;;;;;;74.90;33.63;;;;;;;;;;4934306;29;20462;-60
2023/01/08 15:12:27;;;;;;;75.13;35.50;;;;;;;;;;4932551;29;20714;-60